createdAt,value
2022-08-10T00:05:08.582Z,21.10
2022-08-10T00:12:09.139Z,21.00
2022-08-10T00:19:10.098Z,20.80
2022-08-10T00:26:11.026Z,20.70
2022-08-10T00:33:11.893Z,20.40
2022-08-10T00:40:12.918Z,20.20
2022-08-10T00:47:22.531Z,20.00
2022-08-10T00:54:40.007Z,19.80
2022-08-10T01:02:09.787Z,19.60
2022-08-10T01:09:11.729Z,19.40
2022-08-10T01:16:28.586Z,19.30
2022-08-10T01:24:05.823Z,19.10
2022-08-10T01:31:12.039Z,18.90
2022-08-10T01:38:18.480Z,18.80
2022-08-10T01:45:22.391Z,18.70
2022-08-10T01:52:26.531Z,18.50
2022-08-10T01:59:36.527Z,18.30
2022-08-10T02:06:47.293Z,18.10
2022-08-10T02:13:48.732Z,18.00
2022-08-10T02:20:51.438Z,17.90
2022-08-10T02:27:53.626Z,17.80
2022-08-10T02:34:55.933Z,17.70
2022-08-10T02:45:02.253Z,17.60
2022-08-10T02:49:29.513Z,17.50
2022-08-10T02:56:41.982Z,17.40
2022-08-10T03:03:49.811Z,17.30
2022-08-10T03:10:52.677Z,17.20
2022-08-10T03:17:58.094Z,17.00
2022-08-10T03:25:00.689Z,16.90
2022-08-10T03:32:03.266Z,16.80
2022-08-10T03:39:04.084Z,16.70
2022-08-10T03:46:08.254Z,16.70
2022-08-10T03:53:09.149Z,16.60
2022-08-10T04:00:28.786Z,16.50
2022-08-10T04:07:30.759Z,16.40
2022-08-10T04:14:38.675Z,16.30
2022-08-10T04:22:07.170Z,16.20
2022-08-10T04:29:08.358Z,16.10
2022-08-10T04:36:11.263Z,16.10
2022-08-10T04:43:13.475Z,16.00
2022-08-10T04:50:14.324Z,16.00
2022-08-10T04:57:16.922Z,15.90
2022-08-10T05:04:38.627Z,15.90
2022-08-10T05:11:38.740Z,16.00
2022-08-10T05:18:39.311Z,16.00
2022-08-10T05:25:40.026Z,16.10
2022-08-10T05:32:57.639Z,16.20
2022-08-10T05:40:01.718Z,16.40
2022-08-10T05:47:02.464Z,16.60
2022-08-10T05:54:06.866Z,16.80
2022-08-10T06:01:13.401Z,17.20
2022-08-10T06:08:19.826Z,17.50
2022-08-10T06:15:21.406Z,17.80
2022-08-10T06:22:23.688Z,18.20
2022-08-10T06:29:25.058Z,18.50
2022-08-10T06:36:27.364Z,19.00
2022-08-10T06:43:36.224Z,19.40
2022-08-10T06:50:59.231Z,19.80
2022-08-10T06:58:01.991Z,20.10
2022-08-10T07:05:09.003Z,20.50
2022-08-10T07:12:10.307Z,20.90
2022-08-10T07:19:11.676Z,21.20
2022-08-10T07:26:13.838Z,21.50
2022-08-10T07:33:17.492Z,21.70
2022-08-10T07:40:20.408Z,22.10
2022-08-10T07:47:53.957Z,22.40
2022-08-10T07:54:56.469Z,22.60
2022-08-10T08:01:59.096Z,22.90
2022-08-10T08:09:01.053Z,23.20
2022-08-10T08:16:18.555Z,23.60
2022-08-10T08:24:30.560Z,24.00
2022-08-10T08:30:48.955Z,24.30
2022-08-10T08:38:31.604Z,24.50
2022-08-10T08:45:34.946Z,24.70
2022-08-10T08:52:51.125Z,25.00
2022-08-10T09:00:03.473Z,25.40
2022-08-10T09:07:59.709Z,25.70
2022-08-10T09:15:07.939Z,26.00
2022-08-10T09:22:18.244Z,26.20
2022-08-10T09:29:31.075Z,26.30
2022-08-10T09:36:59.545Z,26.60
2022-08-10T09:44:11.752Z,27.00
2022-08-10T09:51:47.388Z,27.20
2022-08-10T09:59:26.893Z,27.30
2022-08-10T10:06:51.194Z,27.50
2022-08-10T10:14:13.786Z,27.70
2022-08-10T10:21:55.452Z,27.90
2022-08-10T10:29:57.264Z,28.10
2022-08-10T10:36:52.247Z,28.30
2022-08-10T10:44:21.643Z,28.40
2022-08-10T10:51:39.464Z,28.50
2022-08-10T10:58:57.826Z,28.60
2022-08-10T11:06:21.392Z,28.90
2022-08-10T11:14:26.588Z,29.00
2022-08-10T11:21:21.985Z,29.40
2022-08-10T11:28:41.410Z,29.30
2022-08-10T11:35:53.852Z,29.30
2022-08-10T11:43:09.928Z,29.50
2022-08-10T11:50:23.927Z,29.60
2022-08-10T11:57:54.458Z,29.80
2022-08-10T12:04:58.984Z,29.90
2022-08-10T12:12:01.639Z,30.20
2022-08-10T12:19:08.977Z,30.40
2022-08-10T12:26:18.955Z,30.70
2022-08-10T12:33:31.730Z,30.90
2022-08-10T12:40:59.308Z,31.10
2022-08-10T12:48:01.531Z,31.20
2022-08-10T12:55:05.076Z,31.10
2022-08-10T13:02:10.400Z,31.40
2022-08-10T13:09:13.538Z,31.80
2022-08-10T13:16:14.931Z,31.70
2022-08-10T13:23:20.634Z,32.10
2022-08-10T13:30:37.477Z,32.70
2022-08-10T13:37:44.025Z,33.10
2022-08-10T13:44:53.776Z,33.60
2022-08-10T13:51:58.524Z,33.90
2022-08-10T13:58:59.349Z,34.20
2022-08-10T14:06:03.368Z,34.20
2022-08-10T14:13:05.345Z,34.30
2022-08-10T14:20:13.321Z,34.50
2022-08-10T14:28:02.510Z,34.70
2022-08-10T14:36:18.658Z,34.90
2022-08-10T14:42:27.718Z,35.20
2022-08-10T14:49:29.516Z,35.20
2022-08-10T14:56:51.007Z,35.00
2022-08-10T15:04:02.882Z,35.40
2022-08-10T15:11:04.379Z,35.50
2022-08-10T15:18:08.045Z,35.60
2022-08-10T15:25:25.261Z,35.70
2022-08-10T15:32:55.241Z,35.60
2022-08-10T15:40:25.653Z,35.20
2022-08-10T15:47:44.906Z,34.80
2022-08-10T15:55:01.230Z,34.70
2022-08-10T16:02:27.276Z,34.50
2022-08-10T16:10:22.696Z,34.70
2022-08-10T16:16:55.284Z,34.60
2022-08-10T16:24:12.768Z,34.40
2022-08-10T16:31:28.904Z,34.50
2022-08-10T16:38:30.266Z,33.90
2022-08-10T16:45:41.381Z,33.80
2022-08-10T16:52:43.393Z,33.70
2022-08-10T16:59:45.988Z,33.40
2022-08-10T17:06:56.748Z,33.10
2022-08-10T17:13:59.757Z,32.90
2022-08-10T17:21:05.289Z,32.70
2022-08-10T17:28:09.655Z,32.40
2022-08-10T17:35:13.702Z,32.30
2022-08-10T17:42:20.780Z,32.00
2022-08-10T17:49:23.220Z,31.90
2022-08-10T17:56:24.288Z,31.70
2022-08-10T18:03:28.279Z,31.30
2022-08-10T18:10:29.284Z,31.00
2022-08-10T18:17:38.489Z,30.80
2022-08-10T18:24:41.424Z,30.60
2022-08-10T18:31:44.672Z,30.30
2022-08-10T18:38:49.567Z,29.90
2022-08-10T18:45:53.095Z,29.60
2022-08-10T18:53:00.435Z,29.20
2022-08-10T19:00:08.723Z,28.90
2022-08-10T19:07:28.254Z,28.60
2022-08-10T19:14:42.674Z,28.30
2022-08-10T19:21:52.167Z,28.00
2022-08-10T19:30:08.375Z,27.80
2022-08-10T19:36:52.561Z,27.50
2022-08-10T19:44:15.017Z,27.20
2022-08-10T19:51:22.864Z,26.90
2022-08-10T19:58:47.344Z,26.70
2022-08-10T20:06:31.340Z,26.50
2022-08-10T20:13:51.268Z,26.30
2022-08-10T20:21:05.194Z,26.10
2022-08-10T20:28:19.358Z,26.00
2022-08-10T20:35:32.473Z,25.80
2022-08-10T20:42:40.566Z,25.70
2022-08-10T20:49:50.467Z,25.60
2022-08-10T20:58:03.878Z,25.50
2022-08-10T21:05:00.054Z,25.30
2022-08-10T21:12:18.832Z,25.20
2022-08-10T21:19:38.219Z,25.00
2022-08-10T21:27:23.431Z,24.90
2022-08-10T21:34:37.905Z,24.70
2022-08-10T21:42:33.733Z,24.50
2022-08-10T21:50:07.607Z,24.40
2022-08-10T21:57:43.754Z,24.30
2022-08-10T22:05:03.402Z,24.10
2022-08-10T22:12:31.981Z,23.90
2022-08-10T22:20:00.610Z,23.80
2022-08-10T22:27:49.878Z,23.60
2022-08-10T22:35:36.791Z,23.30
2022-08-10T22:43:09.888Z,23.00
2022-08-10T22:50:13.011Z,22.80
2022-08-10T22:57:34.351Z,22.60
2022-08-10T23:04:36.245Z,22.40
2022-08-10T23:11:41.164Z,22.20
2022-08-10T23:19:05.858Z,22.00
2022-08-10T23:26:08.456Z,21.80
2022-08-10T23:33:14.910Z,21.50
2022-08-10T23:40:18.493Z,21.40
2022-08-10T23:47:27.143Z,21.20
2022-08-10T23:54:28.697Z,21.00
